Time;durP1;ratioP1;P1;durP2;ratioP2;P2;SDS_P1;SDS_P2;PMS_P1;PMS_P2;Temp;Humidity;BMP_temperature;BMP_pressure;BME280_temperature;BME280_humidity;BME280_pressure;Samples;Min_cycle;Max_cycle;Signal;HPM_P1;HPM_P2
2023/07/13 00:00:56;;;;;;;;;;;;;;;14.12;70.99;98708.38;6276751;22;19954;-89
2023/07/13 00:03:22;;;;;;;;;;;;;;;14.11;71.08;98712.28;6275626;22;19919;-85
2023/07/13 00:05:56;;;;;;;;;;;;;;;14.14;71.07;98717.06;6276268;22;19919;-88
2023/07/13 00:08:22;;;;;;;;;;;;;;;14.11;71.15;98704.03;6276116;22;19926;-84
2023/07/13 00:10:54;;;;;;;;;;;;;;;14.10;71.45;98711.47;6276960;22;19926;-89
2023/07/13 00:13:20;;;;;;;;;;;;;;;14.14;71.07;98710.75;6274985;22;19919;-86
2023/07/13 00:15:46;;;;;;;;;;;;;;;14.13;71.16;98712.72;6274583;22;19925;-89
2023/07/13 00:18:12;;;;;;;;;;;;;;;14.19;70.77;98713.25;6275725;22;19927;-85
2023/07/13 00:20:37;;;;;;;;;;;;;;;14.15;71.00;98718.66;6275788;22;20009;-85
2023/07/13 00:23:03;;;;;;;;;;;;;;;14.18;70.79;98709.72;6276100;22;20181;-90
2023/07/13 00:25:29;;;;;;;;;;;;;;;14.21;70.79;98708.22;6277620;22;19942;-89
2023/07/13 00:27:55;;;;;;;;;;;;;;;14.22;70.02;98716.09;6276436;22;19919;-86
2023/07/13 00:30:21;;;;;;;;;;;;;;;14.22;70.04;98707.06;6252146;22;19946;-86
2023/07/13 00:32:47;;;;;;;;;;;;;;;14.19;69.95;98716.00;6201097;22;19998;-91
2023/07/13 00:35:14;;;;;;;;;;;;;;;14.29;69.83;98716.28;6275781;22;19951;-89
2023/07/13 00:37:40;;;;;;;;;;;;;;;14.28;69.73;98724.91;6278021;22;19919;-86
2023/07/13 00:40:07;;;;;;;;;;;;;;;14.26;69.88;98716.19;6278794;22;19943;-91
2023/07/13 00:42:32;;;;;;;;;;;;;;;14.23;69.70;98722.41;6225478;22;19919;-85
2023/07/13 00:45:02;;;;;;;;;;;;;;;14.25;69.86;98718.16;6278683;22;20270;-86
2023/07/13 00:47:29;;;;;;;;;;;;;;;14.18;70.12;98719.91;6251148;22;19923;-85
2023/07/13 00:49:55;;;;;;;;;;;;;;;14.20;69.99;98723.09;6252093;22;19927;-88
2023/07/13 00:52:21;;;;;;;;;;;;;;;14.21;70.08;98720.00;6251412;22;20001;-89
2023/07/13 00:54:47;;;;;;;;;;;;;;;14.19;70.10;98713.25;6226044;22;19926;-85
2023/07/13 00:57:15;;;;;;;;;;;;;;;14.19;69.94;98716.00;6278092;22;19919;-89
2023/07/13 00:59:43;;;;;;;;;;;;;;;14.18;70.43;98720.72;6226554;22;19919;-87
2023/07/13 01:02:11;;;;;;;;;;;;;;;14.25;70.23;98720.91;6201622;22;21963;-88
2023/07/13 01:04:38;;;;;;;;;;;;;;;14.24;70.21;98719.31;6250574;22;19924;-86
2023/07/13 01:07:07;;;;;;;;;;;;;;;14.23;70.20;98720.44;6249968;22;20320;-88
2023/07/13 01:09:39;;;;;;;;;;;;;;;14.22;70.18;98713.34;6225702;22;19920;-92
2023/07/13 01:12:05;;;;;;;;;;;;;;;14.23;70.40;98711.41;6250634;22;20010;-88
2023/07/13 01:14:31;;;;;;;;;;;;;;;14.20;70.42;98712.09;6277148;22;19926;-87
2023/07/13 01:16:59;;;;;;;;;;;;;;;14.23;70.43;98708.66;6275536;22;19920;-89
2023/07/13 01:19:39;;;;;;;;;;;;;;;14.23;70.59;98717.69;6277208;22;19989;-85
2023/07/13 01:22:08;;;;;;;;;;;;;;;14.22;70.88;98720.81;6225718;22;19930;-88
2023/07/13 01:24:37;;;;;;;;;;;;;;;14.22;70.85;98712.56;6250259;22;19923;-88
2023/07/13 01:27:03;;;;;;;;;;;;;;;14.23;70.97;98706.69;6275182;22;19919;-85
2023/07/13 01:29:30;;;;;;;;;;;;;;;14.22;70.93;98712.56;6249800;22;19919;-84
2023/07/13 01:31:55;;;;;;;;;;;;;;;14.18;70.99;98717.97;6249234;22;19996;-89
2023/07/13 01:34:23;;;;;;;;;;;;;;;14.20;71.08;98699.16;6249068;22;20356;-87
2023/07/13 01:36:48;;;;;;;;;;;;;;;14.18;70.88;98695.97;6275084;22;19927;-86
2023/07/13 01:39:15;;;;;;;;;;;;;;;14.20;71.08;98690.09;6275833;22;19923;-87
2023/07/13 01:41:41;;;;;;;;;;;;;;;14.20;71.28;98696.41;6224347;22;20357;-90
2023/07/13 01:44:13;;;;;;;;;;;;;;;14.24;71.19;98697.31;6275860;22;19919;-86
2023/07/13 01:46:38;;;;;;;;;;;;;;;14.25;71.48;98685.16;6250380;22;20534;-87
2023/07/13 01:49:04;;;;;;;;;;;;;;;14.24;71.30;98697.31;6250471;22;19931;-87
2023/07/13 01:51:30;;;;;;;;;;;;;;;14.22;71.12;98699.59;6277300;22;20356;-90
2023/07/13 01:53:57;;;;;;;;;;;;;;;14.18;71.34;98693.22;6250750;22;19959;-87
2023/07/13 01:56:23;;;;;;;;;;;;;;;14.17;71.44;98696.31;6250184;22;19919;-87
2023/07/13 01:58:49;;;;;;;;;;;;;;;14.15;71.90;98693.94;6200095;22;19961;-86
2023/07/13 02:01:15;;;;;;;;;;;;;;;14.12;71.83;98686.38;6277763;22;20324;-87
2023/07/13 02:03:41;;;;;;;;;;;;;;;14.17;72.00;98690.81;6278249;22;19919;-87
2023/07/13 02:06:08;;;;;;;;;;;;;;;14.22;71.57;98688.63;6275193;22;19947;-86
2023/07/13 02:08:34;;;;;;;;;;;;;;;14.25;71.65;98698.13;6275357;22;19963;-87
2023/07/13 02:11:00;;;;;;;;;;;;;;;14.24;71.84;98691.81;6252298;22;19926;-89
2023/07/13 02:13:27;;;;;;;;;;;;;;;14.24;71.43;98680.03;6278375;22;19922;-87
2023/07/13 02:15:53;;;;;;;;;;;;;;;14.23;71.97;98689.41;6247413;23;20354;-86
2023/07/13 02:18:18;;;;;;;;;;;;;;;14.27;71.37;98682.03;6273362;22;19919;-87
2023/07/13 02:21:04;;;;;;;;;;;;;;;14.31;71.78;98691.22;6247677;23;19930;-88
2023/07/13 02:23:30;;;;;;;;;;;;;;;14.30;71.96;98687.66;6221792;23;19919;-88
2023/07/13 02:25:57;;;;;;;;;;;;;;;14.26;71.93;98688.69;6248446;22;19939;-88
2023/07/13 02:28:22;;;;;;;;;;;;;;;14.27;71.54;98688.38;6221529;23;20265;-87
2023/07/13 02:30:49;;;;;;;;;;;;;;;14.34;71.69;98685.81;6246719;23;20045;-87
2023/07/13 02:33:15;;;;;;;;;;;;;;;14.31;71.53;98682.97;6272492;22;19926;-86
2023/07/13 02:35:41;;;;;;;;;;;;;;;14.27;71.74;98680.13;6248076;22;19920;-87
2023/07/13 02:38:07;;;;;;;;;;;;;;;14.36;71.75;98676.38;6248016;22;19920;-87
2023/07/13 02:40:35;;;;;;;;;;;;;;;14.36;71.58;98682.69;6221984;23;19966;-88
2023/07/13 02:43:01;;;;;;;;;;;;;;;14.38;71.71;98676.84;6221687;23;19919;-88
2023/07/13 02:45:30;;;;;;;;;;;;;;;14.38;71.69;98685.09;6246836;23;19919;-88
2023/07/13 02:47:56;;;;;;;;;;;;;;;14.40;71.88;98674.53;6247266;22;20009;-88
2023/07/13 02:50:22;;;;;;;;;;;;;;;14.46;71.91;98670.34;6221453;23;19965;-88
2023/07/13 02:52:48;;;;;;;;;;;;;;;14.50;71.88;98671.25;6247519;22;20266;-87
2023/07/13 02:55:47;;;;;;;;;;;;;;;14.48;71.91;98671.59;6270952;22;19919;-87
2023/07/13 02:58:16;;;;;;;;;;;;;;;14.56;71.96;98664.34;6196325;23;19926;-87
2023/07/13 03:00:43;;;;;;;;;;;;;;;14.62;71.55;98662.94;6246339;23;20301;-87
2023/07/13 03:03:09;;;;;;;;;;;;;;;14.66;71.73;98666.56;6196134;23;19915;-87
2023/07/13 03:05:37;;;;;;;;;;;;;;;14.66;71.33;98669.31;6247463;23;19920;-87
2023/07/13 03:08:03;;;;;;;;;;;;;;;14.67;71.37;98661.88;6246453;23;20369;-87
2023/07/13 03:10:30;;;;;;;;;;;;;;;14.69;71.58;98673.31;6246436;23;20386;-86
2023/07/13 03:12:56;;;;;;;;;;;;;;;14.74;71.57;98670.31;6195652;23;19943;-88
2023/07/13 03:15:26;;;;;;;;;;;;;;;14.69;71.16;98674.13;6196838;23;20305;-85
2023/07/13 03:17:54;;;;;;;;;;;;;;;14.68;71.64;98669.78;6221523;23;19919;-89
2023/07/13 03:20:20;;;;;;;;;;;;;;;14.70;71.41;98666.66;6249016;23;19966;-86
2023/07/13 03:22:46;;;;;;;;;;;;;;;14.71;71.44;98666.31;6220128;23;20574;-86
2023/07/13 03:25:12;;;;;;;;;;;;;;;14.70;71.37;98669.41;6250354;23;19966;-86
2023/07/13 03:27:40;;;;;;;;;;;;;;;14.66;71.60;98674.03;6220908;23;20333;-86
2023/07/13 03:30:08;;;;;;;;;;;;;;;14.60;71.82;98672.69;6247134;23;19926;-87
2023/07/13 03:32:35;;;;;;;;;;;;;;;14.61;71.98;98680.59;6245213;23;19955;-88
2023/07/13 03:35:01;;;;;;;;;;;;;;;14.59;72.04;98677.41;6221667;23;20265;-87
2023/07/13 03:37:29;;;;;;;;;;;;;;;14.62;72.03;98678.66;6247151;23;19919;-86
2023/07/13 03:39:55;;;;;;;;;;;;;;;14.69;72.12;98679.63;6249897;23;20226;-86
2023/07/13 03:42:21;;;;;;;;;;;;;;;14.63;72.03;98670.03;6249394;23;20306;-88
2023/07/13 03:44:52;;;;;;;;;;;;;;;14.61;71.88;98675.09;6247500;23;19950;-87
2023/07/13 03:47:18;;;;;;;;;;;;;;;14.59;72.48;98684.88;6196882;23;20238;-86
2023/07/13 03:49:46;;;;;;;;;;;;;;;14.61;72.40;98671.56;6221780;23;20364;-89
2023/07/13 03:52:12;;;;;;;;;;;;;;;14.65;72.30;98677.94;6249881;23;19966;-87
2023/07/13 03:54:38;;;;;;;;;;;;;;;14.62;71.89;98682.19;6222156;23;19919;-90
2023/07/13 03:57:05;;;;;;;;;;;;;;;14.70;72.01;98675.72;6247586;23;19923;-87
2023/07/13 03:59:34;;;;;;;;;;;;;;;14.74;72.33;98673.84;6249932;23;19920;-87
2023/07/13 04:02:04;;;;;;;;;;;;;;;14.77;71.59;98680.59;6223855;23;19916;-87
2023/07/13 04:04:32;;;;;;;;;;;;;;;14.79;71.49;98679.06;6249119;23;19919;-88
2023/07/13 04:06:58;;;;;;;;;;;;;;;14.92;71.19;98693.53;6250954;23;19954;-86
2023/07/13 04:09:24;;;;;;;;;;;;;;;14.92;70.88;98681.72;6225728;23;20316;-90
2023/07/13 04:11:50;;;;;;;;;;;;;;;15.01;70.96;98682.34;6251477;23;19994;-92
2023/07/13 04:14:16;;;;;;;;;;;;;;;15.14;70.37;98694.84;6201138;23;19938;-89
2023/07/13 04:16:43;;;;;;;;;;;;;;;15.13;70.90;98692.44;6245167;23;20338;-87
2023/07/13 04:19:10;;;;;;;;;;;;;;;15.13;70.71;98687.75;6222820;23;20334;-87
2023/07/13 04:21:36;;;;;;;;;;;;;;;15.14;70.54;98692.09;6251163;22;19977;-86
2023/07/13 04:24:02;;;;;;;;;;;;;;;15.12;70.44;98697.13;6250721;22;19920;-86
2023/07/13 04:26:30;;;;;;;;;;;;;;;15.15;70.87;98688.16;6250027;22;19919;-87
2023/07/13 04:28:56;;;;;;;;;;;;;;;15.23;70.81;98686.38;6249834;23;19920;-87
2023/07/13 04:31:47;;;;;;;;;;;;;;;15.33;70.33;98688.59;6233264;23;20308;-86
2023/07/13 04:34:19;;;;;;;;;;;;;;;15.39;69.71;98683.56;6232530;23;19946;-91
2023/07/13 04:36:45;;;;;;;;;;;;;;;15.37;70.30;98685.91;6251634;22;19998;-85
2023/07/13 04:39:12;;;;;;;;;;;;;;;15.35;70.89;98679.94;6223557;23;19923;-89
2023/07/13 04:41:42;;;;;;;;;;;;;;;15.41;70.14;98681.25;6204362;23;19919;-87
2023/07/13 04:44:07;;;;;;;;;;;;;;;15.42;69.98;98677.34;6255189;22;20295;-87
2023/07/13 04:46:33;;;;;;;;;;;;;;;15.39;70.10;98678.84;6253434;22;19925;-86
2023/07/13 04:49:00;;;;;;;;;;;;;;;15.34;69.87;98675.59;6251982;22;19919;-86
2023/07/13 04:51:26;;;;;;;;;;;;;;;15.31;70.61;98670.81;6250071;22;19919;-85
2023/07/13 04:53:52;;;;;;;;;;;;;;;15.33;70.35;98662.97;6257198;22;20312;-84
2023/07/13 04:56:19;;;;;;;;;;;;;;;15.39;70.76;98678.06;6250709;23;19919;-86
2023/07/13 04:58:45;;;;;;;;;;;;;;;15.47;70.64;98680.63;6226164;23;20369;-87
2023/07/13 05:01:11;;;;;;;;;;;;;;;15.48;70.06;98679.44;6228646;23;19919;-87
2023/07/13 05:03:37;;;;;;;;;;;;;;;15.52;69.75;98677.56;6255860;22;19939;-86
2023/07/13 05:06:04;;;;;;;;;;;;;;;15.54;69.81;98679.97;6259335;22;19927;-90
2023/07/13 05:08:36;;;;;;;;;;;;;;;15.64;70.39;98687.66;6244056;22;19949;-89
2023/07/13 05:11:03;;;;;;;;;;;;;;;15.62;69.56;98681.69;6231020;22;19919;-86
2023/07/13 05:13:29;;;;;;;;;;;;;;;15.66;69.40;98677.13;6284027;22;19919;-87
2023/07/13 05:15:55;;;;;;;;;;;;;;;15.74;69.73;98673.34;6227932;22;19919;-91
2023/07/13 05:18:21;;;;;;;;;;;;;;;15.84;69.32;98684.94;6281448;22;19923;-88
2023/07/13 05:20:54;;;;;;;;;;;;;;;15.87;68.82;98678.72;6253681;22;20272;-85
2023/07/13 05:23:19;;;;;;;;;;;;;;;15.99;69.07;98684.03;6255474;22;19923;-88
2023/07/13 05:25:48;;;;;;;;;;;;;;;16.03;68.82;98684.13;6256302;22;19973;-87
2023/07/13 05:28:17;;;;;;;;;;;;;;;16.03;68.67;98684.94;6231608;22;19919;-87
2023/07/13 05:30:46;;;;;;;;;;;;;;;16.16;68.90;98685.56;6283163;22;19926;-88
2023/07/13 05:33:12;;;;;;;;;;;;;;;16.33;67.91;98684.28;6262244;22;19926;-90
2023/07/13 05:35:38;;;;;;;;;;;;;;;16.48;68.13;98685.34;6229975;22;19919;-87
2023/07/13 05:38:07;;;;;;;;;;;;;;;16.58;67.36;98690.22;6284745;22;19941;-86
2023/07/13 05:40:33;;;;;;;;;;;;;;;16.70;65.43;98692.81;6255285;22;19985;-84
2023/07/13 05:42:59;;;;;;;;;;;;;;;16.67;65.17;98691.59;6252790;22;19923;-84
2023/07/13 05:45:25;;;;;;;;;;;;;;;16.71;65.36;98693.59;6276769;22;19998;-84
2023/07/13 05:47:51;;;;;;;;;;;;;;;16.82;64.02;98686.31;6250655;22;20001;-85
2023/07/13 05:50:17;;;;;;;;;;;;;;;16.93;64.62;98683.75;6253414;22;20232;-86
2023/07/13 05:52:43;;;;;;;;;;;;;;;17.07;64.66;98682.00;6280206;22;19919;-83
2023/07/13 05:55:09;;;;;;;;;;;;;;;17.22;64.16;98679.41;6224185;22;20361;-84
2023/07/13 05:57:35;;;;;;;;;;;;;;;17.40;64.02;98683.25;6278643;22;20308;-84
2023/07/13 06:00:00;;;;;;;;;;;;;;;17.45;62.08;98684.88;6224676;22;19919;-83
2023/07/13 06:02:27;;;;;;;;;;;;;;;17.56;62.65;98681.09;6251324;22;19920;-85
2023/07/13 06:04:53;;;;;;;;;;;;;;;17.53;62.18;98672.75;6280036;22;19928;-84
2023/07/13 06:07:22;;;;;;;;;;;;;;;17.58;61.52;98672.41;6227003;22;19919;-85
2023/07/13 06:09:48;;;;;;;;;;;;;;;17.65;61.72;98671.72;6252742;22;20300;-84
2023/07/13 06:12:14;;;;;;;;;;;;;;;17.67;61.48;98670.16;6278150;22;19919;-84
2023/07/13 06:14:40;;;;;;;;;;;;;;;17.69;60.23;98667.03;6278042;22;19919;-82
2023/07/13 06:17:05;;;;;;;;;;;;;;;17.72;59.90;98672.63;6277694;22;19942;-83
2023/07/13 06:19:31;;;;;;;;;;;;;;;17.75;59.39;98673.84;6279692;22;19915;-84
2023/07/13 06:21:58;;;;;;;;;;;;;;;17.84;59.52;98675.13;6276516;22;19941;-81
2023/07/13 06:24:24;;;;;;;;;;;;;;;17.99;59.37;98680.84;6275700;22;19920;-84
2023/07/13 06:26:50;;;;;;;;;;;;;;;18.09;59.70;98666.34;6276367;22;19941;-83
2023/07/13 06:29:16;;;;;;;;;;;;;;;18.19;58.23;98662.88;6279183;22;19933;-89
2023/07/13 06:31:42;;;;;;;;;;;;;;;18.23;58.50;98660.16;6282100;22;19942;-85
2023/07/13 06:34:09;;;;;;;;;;;;;;;18.26;57.74;98659.41;6280073;22;19919;-89
2023/07/13 06:36:38;;;;;;;;;;;;;;;18.34;56.99;98661.03;6283931;22;19919;-83
2023/07/13 06:39:05;;;;;;;;;;;;;;;18.46;57.53;98649.69;6280891;22;19942;-85
2023/07/13 06:41:32;;;;;;;;;;;;;;;18.55;57.14;98649.38;6278771;22;20265;-86
2023/07/13 06:43:58;;;;;;;;;;;;;;;18.63;55.80;98645.50;6285498;22;19919;-86
2023/07/13 06:46:25;;;;;;;;;;;;;;;18.74;56.46;98645.59;6282277;22;19926;-89
2023/07/13 06:48:50;;;;;;;;;;;;;;;18.68;55.38;98649.91;6286333;22;19923;-86
2023/07/13 06:51:16;;;;;;;;;;;;;;;18.77;55.42;98644.84;6279681;22;19926;-86
2023/07/13 06:53:43;;;;;;;;;;;;;;;18.86;55.76;98650.84;6279173;22;19950;-84
2023/07/13 06:56:10;;;;;;;;;;;;;;;19.04;55.47;98645.44;6279520;22;19926;-87
2023/07/13 06:58:37;;;;;;;;;;;;;;;19.10;53.92;98641.09;6279776;22;19922;-85
2023/07/13 07:01:04;;;;;;;;;;;;;;;19.05;54.11;98641.47;6276963;22;19923;-87
2023/07/13 07:03:31;;;;;;;;;;;;;;;19.00;54.06;98645.38;6280270;22;19919;-85
2023/07/13 07:06:00;;;;;;;;;;;;;;;18.92;54.21;98643.78;6282637;22;19994;-90
2023/07/13 07:08:26;;;;;;;;;;;;;;;18.87;53.33;98654.41;6279706;22;19986;-85
2023/07/13 07:10:53;;;;;;;;;;;;;;;18.91;53.56;98644.97;6282622;22;19927;-86
2023/07/13 07:13:20;;;;;;;;;;;;;;;18.80;52.30;98657.13;6280555;22;19919;-84
2023/07/13 07:15:47;;;;;;;;;;;;;;;18.76;53.44;98652.34;6278078;22;19926;-85
2023/07/13 07:18:16;;;;;;;;;;;;;;;18.66;53.50;98652.25;6253944;22;19919;-87
2023/07/13 07:20:42;;;;;;;;;;;;;;;18.62;54.50;98663.28;6282686;22;19925;-86
2023/07/13 07:23:08;;;;;;;;;;;;;;;18.46;54.03;98654.44;6284968;22;19998;-92
2023/07/13 07:25:41;;;;;;;;;;;;;;;18.48;53.85;98661.19;6284843;22;19911;-87
2023/07/13 07:28:50;;;;;;;;;;;;;;;18.44;54.57;98663.16;6281491;22;20438;-86
2023/07/13 07:31:16;;;;;;;;;;;;;;;18.49;56.92;98642.63;6281161;22;19927;-85
2023/07/13 07:33:43;;;;;;;;;;;;;;;18.53;56.70;98654.50;6282854;22;20256;-87
2023/07/13 07:36:09;;;;;;;;;;;;;;;18.56;57.42;98662.03;6288213;22;19926;-90
2023/07/13 07:41:29;;;;;;;;;;;;;;;18.51;54.16;98665.19;6219259;23;19927;-93
2023/07/13 07:43:55;;;;;;;;;;;;;;;18.54;54.60;98667.97;6218439;23;19924;-91
2023/07/13 07:46:20;;;;;;;;;;;;;;;18.54;54.79;98667.97;6194562;23;19923;-88
2023/07/13 07:48:46;;;;;;;;;;;;;;;18.64;54.83;98679.50;6192715;23;20428;-90
2023/07/13 07:51:12;;;;;;;;;;;;;;;18.64;54.18;98673.97;6197095;23;19931;-87
2023/07/13 07:53:49;;;;;;;;;;;;;;;18.67;55.69;98667.66;6216478;23;19920;-86
2023/07/13 07:56:16;;;;;;;;;;;;;;;18.69;53.53;98674.41;6191436;23;19927;-85
2023/07/13 07:58:42;;;;;;;;;;;;;;;18.57;54.98;98668.38;6185719;23;20022;-86
2023/07/13 08:01:08;;;;;;;;;;;;;;;18.53;55.43;98685.75;6215275;23;19926;-89
2023/07/13 08:03:44;;;;;;;;;;;;;;;18.62;57.74;98670.81;6220752;23;19920;-88
2023/07/13 08:06:10;;;;;;;;;;;;;;;18.49;56.68;98676.63;6219949;23;20116;-87
2023/07/13 08:08:41;;;;;;;;;;;;;;;18.45;58.79;98667.50;6192074;23;19920;-84
2023/07/13 08:11:32;;;;;;;;;;;;;;;18.34;59.30;98676.84;6215146;23;19920;-86
2023/07/13 08:13:58;;;;;;;;;;;;;;;18.31;59.85;98676.47;6192280;23;19926;-87
2023/07/13 08:16:25;;;;;;;;;;;;;;;18.26;59.84;98678.75;6168464;23;19963;-89
2023/07/13 08:18:51;;;;;;;;;;;;;;;18.12;60.10;98693.25;6236164;23;19973;-85
2023/07/13 08:21:19;;;;;;;;;;;;;;;17.92;61.82;98681.56;6249378;23;19920;-80
2023/07/13 08:23:46;;;;;;;;;;;;;;;17.88;61.90;98686.28;6216183;23;19920;-81
2023/07/13 08:26:12;;;;;;;;;;;;;;;17.74;60.43;98686.03;6240009;23;19916;-81
2023/07/13 08:28:38;;;;;;;;;;;;;;;17.68;60.68;98657.13;6243338;23;19920;-82
2023/07/13 08:31:05;;;;;;;;;;;;;;;17.75;59.86;98673.84;6219663;23;19922;-82
2023/07/13 08:33:31;;;;;;;;;;;;;;;17.68;58.68;98682.84;6195600;23;19924;-81
2023/07/13 08:35:57;;;;;;;;;;;;;;;17.75;56.67;98676.59;6243298;23;19973;-80
2023/07/13 08:38:23;;;;;;;;;;;;;;;17.73;57.53;98678.94;6244228;23;19915;-79
2023/07/13 08:40:51;;;;;;;;;;;;;;;17.77;54.87;98685.31;6243932;23;20464;-81
2023/07/13 08:43:20;;;;;;;;;;;;;;;17.84;57.48;98675.13;6246002;23;20338;-80
2023/07/13 08:45:48;;;;;;;;;;;;;;;17.90;57.85;98680.34;6245924;23;19973;-87
2023/07/13 08:48:19;;;;;;;;;;;;;;;17.85;58.44;98687.03;6219159;23;19924;-83
2023/07/13 08:50:57;;;;;;;;;;;;;;;17.73;55.85;98679.72;6248512;23;19916;-85
2023/07/13 08:53:24;;;;;;;;;;;;;;;17.70;57.70;98685.22;6223152;23;19919;-86
2023/07/13 08:55:52;;;;;;;;;;;;;;;17.70;56.09;98685.22;6196260;23;19926;-84
2023/07/13 08:58:18;;;;;;;;;;;;;;;17.62;56.20;98700.91;6220095;23;19926;-84
2023/07/13 09:00:54;;;;;;;;;;;;;;;17.66;55.90;98690.69;6219264;23;19919;-84
2023/07/13 09:03:30;;;;;;;;;;;;;;;17.67;55.64;98675.69;6240641;23;20555;-85
2023/07/13 09:06:00;;;;;;;;;;;;;;;17.60;57.76;98676.41;6191221;23;20341;-85
2023/07/13 09:08:48;;;;;;;;;;;;;;;17.63;59.09;98683.16;6195542;22;19926;-83
2023/07/13 09:11:14;;;;;;;;;;;;;;;17.74;60.39;98683.28;6279301;22;19919;-83
2023/07/13 09:13:42;;;;;;;;;;;;;;;17.78;61.28;98684.16;6278686;22;19980;-83
2023/07/13 09:16:11;;;;;;;;;;;;;;;17.79;62.15;98692.06;6272328;22;19923;-83
2023/07/13 09:18:48;;;;;;;;;;;;;;;17.90;63.19;98692.19;6272753;22;19926;-83
2023/07/13 09:21:22;;;;;;;;;;;;;;;18.03;64.02;98681.69;6271420;22;20002;-86
2023/07/13 09:23:52;;;;;;;;;;;;;;;18.09;64.84;98696.75;6249868;22;19957;-83
2023/07/13 09:26:21;;;;;;;;;;;;;;;18.23;66.40;98696.13;6276356;22;19919;-84
2023/07/13 09:28:57;;;;;;;;;;;;;;;18.19;64.29;98696.09;6275738;22;20022;-84
2023/07/13 09:31:29;;;;;;;;;;;;;;;18.25;64.89;98702.88;6273308;22;19998;-83
2023/07/13 09:33:55;;;;;;;;;;;;;;;18.30;64.45;98710.03;6275954;22;20363;-83
2023/07/13 09:36:25;;;;;;;;;;;;;;;18.38;64.98;98708.94;6273694;22;19919;-83
2023/07/13 09:39:03;;;;;;;;;;;;;;;18.37;65.19;98710.09;6272281;22;19919;-84
2023/07/13 09:41:46;;;;;;;;;;;;;;;18.43;64.58;98699.47;6274866;22;19919;-84
2023/07/13 09:44:14;;;;;;;;;;;;;;;18.43;65.53;98711.34;6272763;22;20025;-87
2023/07/13 09:46:45;;;;;;;;;;;;;;;18.36;64.78;98711.28;6275574;22;19919;-83
2023/07/13 09:49:14;;;;;;;;;;;;;;;18.24;65.44;98714.31;6270438;22;19998;-86
2023/07/13 09:51:44;;;;;;;;;;;;;;;18.31;66.25;98708.88;6273735;22;19926;-88
2023/07/13 09:54:31;;;;;;;;;;;;;;;18.26;66.04;98710.00;6272936;22;19950;-85
2023/07/13 09:56:58;;;;;;;;;;;;;;;18.18;65.76;98707.50;6274105;22;19919;-88
2023/07/13 09:59:28;;;;;;;;;;;;;;;18.12;65.68;98709.84;6273272;22;20026;-84
2023/07/13 10:01:55;;;;;;;;;;;;;;;17.99;65.92;98714.84;6273640;22;20707;-87
2023/07/13 10:04:27;;;;;;;;;;;;;;;17.94;65.44;98711.59;6273693;22;19923;-88
2023/07/13 10:07:04;;;;;;;;;;;;;;;17.87;65.19;98711.50;6274903;22;19926;-84
2023/07/13 10:09:30;;;;;;;;;;;;;;;17.79;66.40;98705.91;6279560;22;19963;-84
2023/07/13 10:11:58;;;;;;;;;;;;;;;17.79;66.61;98716.97;6273125;22;19952;-84
2023/07/13 10:14:25;;;;;;;;;;;;;;;17.75;65.54;98710.56;6273750;22;20002;-85
2023/07/13 10:17:01;;;;;;;;;;;;;;;17.65;65.73;98725.03;6273027;22;20041;-84
2023/07/13 10:19:32;;;;;;;;;;;;;;;17.64;67.06;98717.13;6271298;22;20322;-85
2023/07/13 10:22:13;;;;;;;;;;;;;;;17.58;67.48;98725.75;6274008;22;19919;-86
2023/07/13 10:24:39;;;;;;;;;;;;;;;17.59;65.71;98719.03;6247173;22;19965;-82
2023/07/13 10:27:17;;;;;;;;;;;;;;;17.57;68.10;98715.06;6269431;22;20300;-81
2023/07/13 10:29:46;;;;;;;;;;;;;;;17.49;68.03;98721.66;6273434;22;19926;-81
2023/07/13 10:32:13;;;;;;;;;;;;;;;17.37;67.32;98722.66;6276769;22;19923;-83
2023/07/13 10:34:39;;;;;;;;;;;;;;;17.27;67.33;98721.34;6277286;22;19919;-83
2023/07/13 10:37:08;;;;;;;;;;;;;;;17.25;67.64;98725.63;6250364;22;19943;-84
2023/07/13 10:39:36;;;;;;;;;;;;;;;17.20;69.03;98731.50;6279441;22;19915;-84
2023/07/13 10:42:05;;;;;;;;;;;;;;;17.17;70.98;98740.53;6277240;22;19919;-84
2023/07/13 10:44:32;;;;;;;;;;;;;;;17.08;70.55;98736.03;6277051;22;19961;-82
2023/07/13 10:47:01;;;;;;;;;;;;;;;17.03;69.58;98735.56;6275511;22;20440;-84
2023/07/13 10:49:29;;;;;;;;;;;;;;;16.95;70.50;98734.63;6273269;22;19926;-83
2023/07/13 10:51:55;;;;;;;;;;;;;;;16.95;69.66;98729.13;6274268;22;20490;-86
2023/07/13 10:54:26;;;;;;;;;;;;;;;16.97;71.73;98737.84;6274855;22;19927;-84
2023/07/13 10:57:08;;;;;;;;;;;;;;;16.98;70.88;98742.19;6273764;22;19953;-84
2023/07/13 10:59:34;;;;;;;;;;;;;;;17.02;71.62;98751.34;6273317;22;20431;-85
2023/07/13 11:02:04;;;;;;;;;;;;;;;16.94;70.15;98744.09;6273011;22;19926;-83
2023/07/13 11:04:40;;;;;;;;;;;;;;;16.80;69.90;98746.63;6273935;22;19926;-82
2023/07/13 11:07:11;;;;;;;;;;;;;;;16.78;71.61;98746.19;6273896;22;20364;-87
2023/07/13 11:09:40;;;;;;;;;;;;;;;16.65;72.96;98745.53;6274103;22;19926;-85
2023/07/13 11:12:09;;;;;;;;;;;;;;;16.59;74.42;98747.81;6272957;22;20578;-87
2023/07/13 11:14:38;;;;;;;;;;;;;;;16.53;74.58;98735.50;6273069;22;19926;-87
2023/07/13 11:17:26;;;;;;;;;;;;;;;16.48;75.28;98738.53;6273558;22;19919;-88
2023/07/13 11:19:53;;;;;;;;;;;;;;;16.45;74.80;98739.28;6227801;22;20006;-86
2023/07/13 11:22:23;;;;;;;;;;;;;;;16.31;75.63;98741.78;6273788;22;19919;-86
2023/07/13 11:24:51;;;;;;;;;;;;;;;16.23;75.39;98734.53;6247910;22;20005;-86
2023/07/13 11:27:37;;;;;;;;;;;;;;;16.18;74.98;98730.09;6272896;22;19919;-86
2023/07/13 11:30:07;;;;;;;;;;;;;;;16.23;74.71;98729.03;6272060;22;20323;-88
2023/07/13 11:32:33;;;;;;;;;;;;;;;16.20;72.67;98741.56;6272137;22;20328;-85
2023/07/13 11:34:59;;;;;;;;;;;;;;;16.09;73.17;98735.84;6271150;22;19919;-87
2023/07/13 11:37:26;;;;;;;;;;;;;;;16.10;74.71;98742.97;6214479;23;20327;-85
2023/07/13 11:39:54;;;;;;;;;;;;;;;16.03;73.32;98736.50;6214591;23;20665;-85
2023/07/13 11:42:20;;;;;;;;;;;;;;;16.00;72.91;98734.47;6164012;23;20302;-87
2023/07/13 11:44:50;;;;;;;;;;;;;;;15.95;72.92;98730.03;6238350;23;19946;-86
2023/07/13 11:47:25;;;;;;;;;;;;;;;15.95;73.29;98727.28;6238870;23;19920;-87
2023/07/13 11:49:53;;;;;;;;;;;;;;;15.88;73.75;98725.19;6244342;23;19919;-88
2023/07/13 11:52:23;;;;;;;;;;;;;;;15.88;74.82;98732.66;6239419;23;19919;-86
2023/07/13 11:54:55;;;;;;;;;;;;;;;15.84;74.28;98723.53;6189264;23;19942;-86
2023/07/13 11:57:22;;;;;;;;;;;;;;;15.85;74.82;98725.13;6241133;23;20357;-88
2023/07/13 11:59:50;;;;;;;;;;;;;;;15.82;74.73;98723.88;6165108;23;20049;-87
2023/07/13 12:02:23;;;;;;;;;;;;;;;15.72;75.67;98730.75;6214661;23;19920;-87
2023/07/13 12:04:52;;;;;;;;;;;;;;;15.72;76.22;98730.75;6244625;23;20007;-87
2023/07/13 12:07:21;;;;;;;;;;;;;;;15.81;75.94;98722.28;6213138;23;19919;-87
2023/07/13 12:09:50;;;;;;;;;;;;;;;15.82;77.31;98720.31;6189144;23;20002;-86
2023/07/13 12:12:22;;;;;;;;;;;;;;;15.79;76.52;98724.59;6188066;23;19920;-85
2023/07/13 12:14:52;;;;;;;;;;;;;;;15.80;77.61;98728.97;6253775;22;20001;-84
2023/07/13 12:17:21;;;;;;;;;;;;;;;15.85;77.62;98734.19;6274078;22;19919;-85
2023/07/13 12:19:51;;;;;;;;;;;;;;;15.87;78.59;98731.06;6220540;22;19938;-87
2023/07/13 12:22:19;;;;;;;;;;;;;;;15.82;78.86;98734.09;6271186;22;19919;-84
2023/07/13 12:24:46;;;;;;;;;;;;;;;15.86;78.82;98730.28;6264223;22;19920;-87
2023/07/13 12:27:26;;;;;;;;;;;;;;;15.86;78.85;98729.44;6270973;22;19930;-83
2023/07/13 12:29:57;;;;;;;;;;;;;;;15.92;80.08;98731.56;6272155;22;20361;-83
2023/07/13 12:32:24;;;;;;;;;;;;;;;16.00;80.07;98729.75;6220285;22;20191;-84
2023/07/13 12:34:54;;;;;;;;;;;;;;;16.01;79.01;98725.84;6271890;22;19919;-85
2023/07/13 12:37:20;;;;;;;;;;;;;;;16.06;79.68;98728.31;6272530;22;20005;-82
2023/07/13 12:39:49;;;;;;;;;;;;;;;16.08;79.06;98728.72;6245317;22;20565;-81
2023/07/13 12:42:28;;;;;;;;;;;;;;;16.10;78.92;98717.34;6271919;22;19923;-85
2023/07/13 12:45:16;;;;;;;;;;;;;;;16.12;78.40;98721.31;6272020;22;19921;-84
2023/07/13 12:47:47;;;;;;;;;;;;;;;16.14;77.34;98719.00;6269572;22;19926;-85
2023/07/13 12:50:18;;;;;;;;;;;;;;;16.06;76.36;98709.00;6271778;22;19961;-83
2023/07/13 12:52:53;;;;;;;;;;;;;;;16.03;76.80;98709.75;6272184;22;20299;-84
2023/07/13 12:55:20;;;;;;;;;;;;;;;16.02;77.34;98715.59;6271552;22;20007;-85
2023/07/13 12:57:56;;;;;;;;;;;;;;;16.02;77.22;98710.09;6271973;22;19926;-84